createdAt,value
2023-02-28T00:01:43.380Z,99.90
2023-02-28T00:04:11.179Z,99.90
2023-02-28T00:06:39.012Z,99.90
2023-02-28T00:09:06.795Z,99.90
2023-02-28T00:11:34.561Z,99.90
2023-02-28T00:14:03.874Z,99.90
2023-02-28T00:16:31.689Z,99.90
2023-02-28T00:18:59.520Z,99.90
2023-02-28T00:21:27.748Z,99.90
2023-02-28T00:23:55.703Z,99.90
2023-02-28T00:26:23.462Z,99.90
2023-02-28T00:28:53.605Z,99.90
2023-02-28T00:31:22.766Z,99.90
2023-02-28T00:33:51.816Z,99.90
2023-02-28T00:36:19.644Z,99.90
2023-02-28T00:38:47.432Z,99.90
2023-02-28T00:41:15.284Z,99.90
2023-02-28T00:43:43.490Z,99.90
2023-02-28T00:46:11.575Z,99.90
2023-02-28T00:48:40.726Z,99.90
2023-02-28T00:51:08.554Z,99.90
2023-02-28T00:53:36.337Z,99.90
2023-02-28T00:56:04.668Z,99.90
2023-02-28T00:58:33.637Z,99.90
2023-02-28T01:01:01.407Z,99.90
2023-02-28T01:03:29.199Z,99.90
2023-02-28T01:05:58.469Z,99.90
2023-02-28T01:08:27.615Z,99.90
2023-02-28T01:10:55.473Z,99.90
2023-02-28T01:13:24.004Z,99.90
2023-02-28T01:15:54.537Z,99.90
2023-02-28T01:18:23.235Z,99.90
2023-02-28T01:20:52.609Z,99.90
2023-02-28T01:23:24.162Z,99.90
2023-02-28T01:25:52.105Z,99.90
2023-02-28T01:28:19.992Z,99.90
2023-02-28T01:30:50.336Z,99.90
2023-02-28T01:33:18.192Z,99.90
2023-02-28T01:35:46.013Z,99.90
2023-02-28T01:38:22.294Z,99.90
2023-02-28T01:40:52.387Z,99.90
2023-02-28T01:43:24.564Z,99.90
2023-02-28T01:45:52.718Z,99.90
2023-02-28T01:48:21.692Z,99.90
2023-02-28T01:50:50.903Z,99.90
2023-02-28T01:53:21.305Z,99.90
2023-02-28T01:55:54.193Z,99.90
2023-02-28T01:58:22.521Z,99.90
2023-02-28T02:00:51.083Z,99.90
2023-02-28T02:03:21.690Z,99.90
2023-02-28T02:05:49.736Z,99.90
2023-02-28T02:08:20.653Z,99.90
2023-02-28T02:10:54.849Z,99.90
2023-02-28T02:13:56.044Z,99.90
2023-02-28T02:16:39.370Z,99.90
2023-02-28T02:19:25.509Z,99.90
2023-02-28T02:22:23.527Z,99.90
2023-02-28T02:25:12.727Z,99.90
2023-02-28T02:27:55.714Z,99.90
2023-02-28T02:30:44.871Z,99.90
2023-02-28T02:33:32.149Z,99.90
2023-02-28T02:36:06.040Z,99.90
2023-02-28T02:38:36.839Z,99.90
2023-02-28T02:41:14.141Z,99.90
2023-02-28T02:43:49.824Z,99.90
2023-02-28T02:46:22.813Z,99.90
2023-02-28T02:48:54.955Z,99.90
2023-02-28T02:51:26.026Z,99.90
2023-02-28T02:54:00.127Z,99.90
2023-02-28T02:56:31.210Z,99.90
2023-02-28T02:59:03.780Z,99.90
2023-02-28T03:01:33.316Z,99.90
2023-02-28T03:04:04.628Z,99.90
2023-02-28T03:06:33.770Z,99.90
2023-02-28T03:09:02.526Z,99.90
2023-02-28T03:11:31.591Z,99.90
2023-02-28T03:14:27.996Z,99.90
2023-02-28T03:17:26.778Z,99.90
2023-02-28T03:20:08.489Z,99.90
2023-02-28T03:22:58.933Z,99.90
2023-02-28T03:25:33.730Z,99.90
2023-02-28T03:28:07.091Z,99.90
2023-02-28T03:30:43.515Z,99.90
2023-02-28T03:33:16.744Z,99.90
2023-02-28T03:35:49.563Z,99.90
2023-02-28T03:38:23.985Z,99.90
2023-02-28T03:40:56.200Z,99.90
2023-02-28T03:43:29.316Z,99.90
2023-02-28T03:45:58.298Z,99.90
2023-02-28T03:48:32.735Z,99.90
2023-02-28T03:51:01.980Z,99.90
2023-02-28T03:53:34.675Z,99.90
2023-02-28T03:56:07.844Z,99.90
2023-02-28T03:58:43.204Z,99.90
2023-02-28T04:01:15.008Z,99.90
2023-02-28T04:03:42.863Z,99.90
2023-02-28T04:06:17.799Z,99.90
2023-02-28T04:08:46.967Z,99.90
2023-02-28T04:11:21.303Z,99.90
2023-02-28T04:13:49.205Z,99.90
2023-02-28T04:16:32.424Z,99.90
2023-02-28T04:19:03.802Z,99.90
2023-02-28T04:21:32.500Z,99.90
2023-02-28T04:24:02.357Z,99.90
2023-02-28T04:26:31.715Z,99.90
2023-02-28T04:29:00.348Z,99.90
2023-02-28T04:31:28.964Z,99.90
2023-02-28T04:33:57.009Z,99.90
2023-02-28T04:36:24.809Z,99.90
2023-02-28T04:38:52.607Z,99.90
2023-02-28T04:41:23.852Z,99.90
2023-02-28T04:43:52.776Z,99.90
2023-02-28T04:46:21.731Z,99.90
2023-02-28T04:48:49.607Z,99.90
2023-02-28T04:51:20.255Z,99.90
2023-02-28T04:53:49.816Z,99.90
2023-02-28T04:56:19.212Z,99.90
2023-02-28T04:58:49.037Z,99.90
2023-02-28T05:01:23.040Z,99.90
2023-02-28T05:03:52.079Z,99.90
2023-02-28T05:06:21.354Z,99.90
2023-02-28T05:08:49.611Z,99.90
2023-02-28T05:11:20.043Z,99.90
2023-02-28T05:13:49.926Z,99.90
2023-02-28T05:16:18.786Z,99.90
2023-02-28T05:18:47.041Z,99.90
2023-02-28T05:21:28.769Z,99.90
2023-02-28T05:23:57.935Z,99.90
2023-02-28T05:26:26.470Z,99.90
2023-02-28T05:28:56.060Z,99.90
2023-02-28T05:31:24.163Z,99.90
2023-02-28T05:33:52.295Z,99.90
2023-02-28T05:36:20.059Z,99.90
2023-02-28T05:38:49.886Z,99.90
2023-02-28T05:41:20.142Z,99.90
2023-02-28T05:43:48.529Z,99.90
2023-02-28T05:46:18.317Z,99.90
2023-02-28T05:48:48.936Z,99.90
2023-02-28T05:51:17.731Z,99.90
2023-02-28T05:53:45.763Z,99.90
2023-02-28T05:56:13.618Z,99.90
2023-02-28T05:58:41.409Z,99.90
2023-02-28T06:01:25.741Z,99.90
2023-02-28T06:03:55.506Z,99.90
2023-02-28T06:06:23.393Z,99.90
2023-02-28T06:08:51.159Z,99.90
2023-02-28T06:11:20.744Z,99.90
2023-02-28T06:13:48.771Z,99.90
2023-02-28T06:16:16.574Z,99.90
2023-02-28T06:18:45.719Z,99.90
2023-02-28T06:21:14.444Z,99.90
2023-02-28T06:23:42.233Z,99.90
2023-02-28T06:26:09.991Z,99.90
2023-02-28T06:28:37.787Z,99.90
2023-02-28T06:31:09.584Z,99.90
2023-02-28T06:33:38.051Z,99.90
2023-02-28T06:36:08.610Z,99.90
2023-02-28T06:38:36.698Z,99.90
2023-02-28T06:41:05.328Z,99.90
2023-02-28T06:43:36.706Z,99.90
2023-02-28T06:46:07.310Z,99.90
2023-02-28T06:48:36.117Z,99.90
2023-02-28T06:51:07.428Z,99.90
2023-02-28T06:53:35.514Z,99.90
2023-02-28T06:56:07.468Z,99.90
2023-02-28T06:58:35.509Z,99.90
2023-02-28T07:01:04.340Z,99.90
2023-02-28T07:03:34.397Z,99.90
2023-02-28T07:06:02.667Z,99.90
2023-02-28T07:08:32.591Z,99.90
2023-02-28T07:11:00.691Z,99.90
2023-02-28T07:13:28.570Z,99.90
2023-02-28T07:15:57.524Z,99.90
2023-02-28T07:18:25.790Z,99.90
2023-02-28T07:20:54.462Z,99.90
2023-02-28T07:23:22.856Z,99.90
2023-02-28T07:25:53.093Z,99.90
2023-02-28T07:28:20.852Z,99.90
2023-02-28T07:30:49.066Z,99.90
2023-02-28T07:33:17.134Z,99.90
2023-02-28T07:35:45.020Z,99.90
2023-02-28T07:38:14.520Z,99.90
2023-02-28T07:40:42.314Z,99.90
2023-02-28T07:43:11.456Z,99.90
2023-02-28T07:45:39.234Z,99.90
2023-02-28T07:48:07.169Z,99.90
2023-02-28T07:50:35.544Z,99.90
2023-02-28T07:53:03.481Z,99.90
2023-02-28T07:55:31.271Z,99.90
2023-02-28T07:57:59.306Z,99.90
2023-02-28T08:00:29.906Z,99.90
2023-02-28T08:02:57.679Z,99.90
2023-02-28T08:05:25.471Z,99.90
2023-02-28T08:07:54.225Z,99.90
2023-02-28T08:10:21.992Z,99.90
2023-02-28T08:12:49.779Z,99.90
2023-02-28T08:15:17.739Z,99.90
2023-02-28T08:17:46.872Z,99.90
2023-02-28T08:20:14.767Z,99.90
2023-02-28T08:22:44.815Z,99.90
2023-02-28T08:25:13.655Z,99.90
2023-02-28T08:27:41.693Z,99.90
2023-02-28T08:30:12.242Z,99.90
2023-02-28T08:32:40.321Z,99.90
2023-02-28T08:35:11.276Z,99.90
2023-02-28T08:37:39.267Z,99.90
2023-02-28T08:40:08.516Z,99.90
2023-02-28T08:42:36.329Z,99.90
2023-02-28T08:45:04.602Z,99.90
2023-02-28T08:47:32.394Z,99.90
2023-02-28T08:50:00.169Z,99.40
2023-02-28T08:52:29.259Z,96.20
2023-02-28T08:54:59.871Z,93.10
2023-02-28T08:57:28.314Z,88.20
2023-02-28T08:59:56.139Z,75.60
2023-02-28T09:02:23.918Z,68.10
2023-02-28T09:04:51.710Z,69.60
2023-02-28T09:07:19.479Z,72.20
2023-02-28T09:09:55.544Z,67.10
2023-02-28T09:12:23.823Z,63.40
2023-02-28T09:14:52.007Z,60.30
2023-02-28T09:17:20.786Z,56.90
2023-02-28T09:19:49.876Z,54.20
2023-02-28T09:22:17.915Z,55.90
2023-02-28T09:24:46.011Z,57.70
2023-02-28T09:27:15.121Z,63.40
2023-02-28T09:29:42.887Z,67.50
2023-02-28T09:32:10.734Z,69.90
2023-02-28T09:34:39.226Z,73.00
2023-02-28T09:37:07.025Z,75.70
2023-02-28T09:39:34.795Z,75.60
2023-02-28T09:42:05.439Z,77.10
2023-02-28T09:44:39.213Z,72.80
2023-02-28T09:47:14.862Z,71.20
2023-02-28T09:49:47.144Z,70.50
2023-02-28T09:52:20.218Z,71.00
2023-02-28T09:54:48.158Z,73.40
2023-02-28T09:57:21.700Z,75.80
2023-02-28T10:00:18.252Z,77.20
2023-02-28T10:02:59.003Z,77.10
2023-02-28T10:05:30.866Z,77.90
2023-02-28T10:08:05.973Z,69.50
2023-02-28T10:10:40.818Z,61.50
2023-02-28T10:13:18.443Z,59.80
2023-02-28T10:15:51.975Z,56.60
2023-02-28T10:18:27.015Z,49.70
2023-02-28T10:20:56.908Z,44.50
2023-02-28T10:23:27.966Z,41.40
2023-02-28T10:25:59.515Z,40.90
2023-02-28T10:28:28.637Z,38.40
2023-02-28T10:30:59.216Z,36.00
2023-02-28T10:33:31.907Z,34.00
2023-02-28T10:36:00.183Z,33.00
2023-02-28T10:38:29.977Z,32.00
2023-02-28T10:41:06.955Z,31.20
2023-02-28T10:43:35.265Z,30.00
2023-02-28T10:46:13.366Z,29.00
2023-02-28T10:48:43.836Z,29.00
2023-02-28T10:51:13.712Z,27.70
2023-02-28T10:54:00.603Z,27.60
2023-02-28T10:56:30.892Z,28.10
2023-02-28T10:59:00.868Z,27.90
2023-02-28T11:01:39.964Z,27.10
2023-02-28T11:04:20.546Z,27.40
2023-02-28T11:06:48.833Z,27.70
2023-02-28T11:09:23.722Z,28.10
2023-02-28T11:11:53.413Z,27.90
2023-02-28T11:14:24.200Z,27.60
2023-02-28T11:16:54.074Z,27.10
2023-02-28T11:19:25.660Z,28.00
2023-02-28T11:21:57.502Z,27.80
2023-02-28T11:24:29.242Z,27.70
2023-02-28T11:26:57.755Z,27.60
2023-02-28T11:29:27.956Z,27.20
2023-02-28T11:32:13.557Z,27.40
2023-02-28T11:34:42.889Z,27.70
2023-02-28T11:37:15.139Z,28.80
2023-02-28T11:39:43.360Z,28.50
2023-02-28T11:42:31.400Z,28.90
2023-02-28T11:45:16.085Z,29.00
2023-02-28T11:47:50.838Z,30.00
2023-02-28T11:50:34.151Z,29.60
2023-02-28T11:53:05.757Z,29.60
2023-02-28T11:55:38.496Z,29.20
2023-02-28T11:58:42.887Z,29.40
2023-02-28T12:01:26.136Z,29.40
2023-02-28T12:04:05.378Z,29.80
2023-02-28T12:06:36.146Z,30.70
2023-02-28T12:09:25.062Z,30.70
2023-02-28T12:11:57.129Z,31.00
2023-02-28T12:14:59.956Z,30.70
2023-02-28T12:17:36.850Z,30.70
2023-02-28T12:20:15.564Z,30.90
2023-02-28T12:22:51.264Z,31.80
2023-02-28T12:25:47.828Z,32.90
2023-02-28T12:28:19.674Z,32.90
2023-02-28T12:30:55.300Z,32.50
2023-02-28T12:33:28.708Z,33.20
2023-02-28T12:36:00.799Z,33.40
2023-02-28T12:38:31.413Z,32.30
2023-02-28T12:41:03.304Z,33.10
2023-02-28T12:43:35.193Z,32.80
2023-02-28T12:46:09.843Z,32.60
2023-02-28T12:48:44.263Z,33.80
2023-02-28T12:51:15.566Z,34.20
2023-02-28T12:53:56.397Z,34.90
2023-02-28T12:56:35.428Z,34.60
2023-02-28T12:59:12.444Z,33.90
2023-02-28T13:02:02.292Z,33.50
2023-02-28T13:04:59.801Z,33.80
2023-02-28T13:07:57.495Z,33.10
2023-02-28T13:10:26.097Z,33.70
2023-02-28T13:12:56.340Z,34.40
2023-02-28T13:15:28.936Z,35.30
2023-02-28T13:17:59.117Z,36.00
2023-02-28T13:20:30.753Z,36.00
2023-02-28T13:23:02.090Z,35.70
2023-02-28T13:25:58.540Z,35.50
2023-02-28T13:29:09.290Z,37.10
2023-02-28T13:32:13.680Z,38.10
2023-02-28T13:34:42.677Z,39.50
2023-02-28T13:37:38.399Z,38.60
2023-02-28T13:40:30.443Z,38.20
2023-02-28T13:42:58.302Z,38.10
2023-02-28T13:45:28.840Z,36.70
2023-02-28T13:48:01.401Z,37.10
2023-02-28T13:50:33.650Z,37.10
2023-02-28T13:53:31.387Z,38.00
2023-02-28T13:56:09.290Z,37.60
2023-02-28T13:58:55.273Z,37.10
2023-02-28T14:01:44.541Z,37.40
2023-02-28T14:04:44.790Z,39.10
2023-02-28T14:07:20.290Z,39.40
2023-02-28T14:09:53.367Z,39.80
2023-02-28T14:13:01.509Z,39.70
2023-02-28T14:16:05.848Z,40.60
2023-02-28T14:18:36.003Z,41.20
2023-02-28T14:21:12.913Z,43.00
2023-02-28T14:24:24.083Z,44.80
2023-02-28T14:27:08.155Z,47.90
2023-02-28T14:29:58.203Z,49.20
2023-02-28T14:32:32.047Z,50.60
2023-02-28T14:35:11.942Z,52.50
2023-02-28T14:37:43.053Z,53.40
2023-02-28T14:40:18.014Z,54.60
2023-02-28T14:42:56.264Z,55.90
2023-02-28T14:45:26.001Z,55.90
2023-02-28T14:47:54.337Z,56.90
2023-02-28T14:50:24.686Z,57.40
2023-02-28T14:52:55.913Z,57.40
2023-02-28T14:55:27.832Z,57.10
2023-02-28T14:57:57.518Z,58.10
2023-02-28T15:00:29.781Z,58.20
2023-02-28T15:02:58.943Z,58.90
2023-02-28T15:05:30.451Z,58.70
2023-02-28T15:08:07.625Z,58.40
2023-02-28T15:10:36.009Z,58.80
2023-02-28T15:13:07.614Z,59.60
2023-02-28T15:16:02.080Z,59.80
2023-02-28T15:18:42.524Z,60.20
2023-02-28T15:21:14.004Z,60.00
2023-02-28T15:23:44.082Z,60.50
2023-02-28T15:26:15.842Z,61.90
2023-02-28T15:28:43.875Z,61.80
2023-02-28T15:31:25.014Z,61.70
2023-02-28T15:33:57.826Z,63.20
2023-02-28T15:36:28.756Z,62.90
2023-02-28T15:39:01.598Z,63.80
2023-02-28T15:41:39.406Z,64.50
2023-02-28T15:44:19.370Z,65.00
2023-02-28T15:46:58.984Z,65.10
2023-02-28T15:49:27.584Z,64.60
2023-02-28T15:51:58.058Z,64.90
2023-02-28T15:54:30.386Z,65.10
2023-02-28T15:57:00.278Z,65.30
2023-02-28T15:59:30.783Z,65.50
2023-02-28T16:02:18.800Z,66.00
2023-02-28T16:05:28.851Z,66.50
2023-02-28T16:07:57.744Z,66.30
2023-02-28T16:10:27.768Z,66.90
2023-02-28T16:12:56.839Z,68.10
2023-02-28T16:15:27.764Z,69.10
2023-02-28T16:17:58.157Z,70.10
2023-02-28T16:20:28.676Z,71.10
2023-02-28T16:22:57.160Z,71.10
2023-02-28T16:25:28.726Z,71.70
2023-02-28T16:27:58.413Z,72.70
2023-02-28T16:30:28.387Z,74.30
2023-02-28T16:32:57.910Z,75.10
2023-02-28T16:35:26.351Z,76.80
2023-02-28T16:37:54.475Z,78.40
2023-02-28T16:40:26.157Z,78.70
2023-02-28T16:42:59.403Z,80.50
2023-02-28T16:45:28.440Z,81.40
2023-02-28T16:47:58.215Z,82.60
2023-02-28T16:50:28.189Z,84.10
2023-02-28T16:52:56.218Z,85.70
2023-02-28T16:55:25.233Z,87.10
2023-02-28T16:57:55.280Z,88.50
2023-02-28T17:00:24.111Z,89.90
2023-02-28T17:02:52.289Z,90.60
2023-02-28T17:05:22.362Z,91.20
2023-02-28T17:07:50.642Z,91.90
2023-02-28T17:10:20.506Z,92.40
2023-02-28T17:12:48.302Z,93.00
2023-02-28T17:15:17.822Z,93.80
2023-02-28T17:17:46.403Z,94.50
2023-02-28T17:20:15.792Z,95.00
2023-02-28T17:22:44.939Z,95.60
2023-02-28T17:25:13.132Z,96.40
2023-02-28T17:27:40.903Z,97.30
2023-02-28T17:30:17.259Z,97.80
2023-02-28T17:32:45.259Z,98.50
2023-02-28T17:35:13.251Z,99.00
2023-02-28T17:37:41.176Z,99.50
2023-02-28T17:40:15.716Z,99.90
2023-02-28T17:42:43.626Z,99.90
2023-02-28T17:45:12.534Z,99.90
2023-02-28T17:47:40.953Z,99.90
2023-02-28T17:50:13.423Z,99.90
2023-02-28T17:52:41.218Z,99.90
2023-02-28T17:55:11.473Z,99.90
2023-02-28T17:57:39.488Z,99.90
2023-02-28T18:00:08.851Z,99.90
2023-02-28T18:02:36.653Z,99.90
2023-02-28T18:05:05.310Z,99.90
2023-02-28T18:07:33.162Z,99.90
2023-02-28T18:10:00.995Z,99.90
2023-02-28T18:12:30.859Z,99.90
2023-02-28T18:14:59.032Z,99.90
2023-02-28T18:17:27.258Z,99.90
2023-02-28T18:19:55.059Z,99.90
2023-02-28T18:22:22.869Z,99.90
2023-02-28T18:24:50.760Z,99.90
2023-02-28T18:27:18.482Z,99.90
2023-02-28T18:29:49.444Z,99.90
2023-02-28T18:32:17.360Z,99.90
2023-02-28T18:34:45.187Z,99.90
2023-02-28T18:37:13.021Z,99.90
2023-02-28T18:39:41.123Z,99.90
2023-02-28T18:42:08.957Z,99.90
2023-02-28T18:44:38.265Z,99.90
2023-02-28T18:47:07.423Z,99.90
2023-02-28T18:49:35.652Z,99.90
2023-02-28T18:52:03.646Z,99.90
2023-02-28T18:54:31.425Z,99.90
2023-02-28T18:56:59.193Z,99.90
2023-02-28T18:59:27.617Z,99.90
2023-02-28T19:01:55.387Z,99.90
2023-02-28T19:04:24.560Z,99.90
2023-02-28T19:06:52.319Z,99.90
2023-02-28T19:09:20.167Z,99.90
2023-02-28T19:11:47.914Z,99.90
2023-02-28T19:14:15.701Z,99.90
2023-02-28T19:16:43.555Z,99.90
2023-02-28T19:19:11.455Z,99.90
2023-02-28T19:21:40.615Z,99.90
2023-02-28T19:24:08.517Z,99.90
2023-02-28T19:26:36.563Z,99.90
2023-02-28T19:29:05.344Z,99.90
2023-02-28T19:31:33.535Z,99.90
2023-02-28T19:34:01.869Z,99.90
2023-02-28T19:36:29.628Z,99.90
2023-02-28T19:38:58.740Z,99.90
2023-02-28T19:41:26.912Z,99.90
2023-02-28T19:43:55.349Z,99.90
2023-02-28T19:46:23.146Z,99.90
2023-02-28T19:48:54.504Z,99.90
2023-02-28T19:51:22.730Z,99.90
2023-02-28T19:53:50.552Z,99.90
2023-02-28T19:56:19.666Z,99.90
2023-02-28T19:58:47.456Z,99.90
2023-02-28T20:01:17.675Z,99.90
2023-02-28T20:03:48.882Z,99.90
2023-02-28T20:06:16.904Z,99.90
2023-02-28T20:08:44.967Z,99.90
2023-02-28T20:11:15.491Z,99.90
2023-02-28T20:13:45.161Z,99.90
2023-02-28T20:16:14.433Z,99.90
2023-02-28T20:18:43.974Z,99.90
2023-02-28T20:21:12.698Z,99.90
2023-02-28T20:23:40.930Z,99.90
2023-02-28T20:26:09.798Z,99.90
2023-02-28T20:28:38.390Z,99.90
2023-02-28T20:31:13.629Z,99.90
2023-02-28T20:33:41.935Z,99.90
2023-02-28T20:36:10.118Z,99.90
2023-02-28T20:38:38.025Z,99.90
2023-02-28T20:41:06.937Z,99.90
2023-02-28T20:43:34.817Z,99.90
2023-02-28T20:46:02.988Z,99.90
2023-02-28T20:48:35.499Z,99.90
2023-02-28T20:51:05.053Z,99.90
2023-02-28T20:53:34.495Z,99.90
2023-02-28T20:56:04.469Z,99.90
2023-02-28T20:58:34.333Z,99.90
2023-02-28T21:01:03.024Z,99.90
2023-02-28T21:03:32.621Z,99.90
2023-02-28T21:06:04.381Z,99.90
2023-02-28T21:08:32.239Z,99.90
2023-02-28T21:11:00.116Z,99.90
2023-02-28T21:13:27.930Z,99.90
2023-02-28T21:15:55.933Z,99.90
2023-02-28T21:18:23.774Z,99.90
2023-02-28T21:20:52.852Z,99.90
2023-02-28T21:23:20.819Z,99.90
2023-02-28T21:25:49.698Z,99.90
2023-02-28T21:28:17.483Z,99.90
2023-02-28T21:30:45.238Z,99.90
2023-02-28T21:33:13.172Z,99.90
2023-02-28T21:35:40.970Z,99.90
2023-02-28T21:38:10.118Z,99.90
2023-02-28T21:40:38.165Z,99.90
2023-02-28T21:43:05.919Z,99.90
2023-02-28T21:45:35.620Z,99.90
2023-02-28T21:48:03.400Z,99.90
2023-02-28T21:50:31.168Z,99.90
2023-02-28T21:52:58.955Z,99.90
2023-02-28T21:55:28.085Z,99.90
2023-02-28T21:57:55.858Z,99.90
2023-02-28T22:00:23.908Z,99.90
2023-02-28T22:02:51.728Z,99.90
2023-02-28T22:05:19.495Z,99.90
2023-02-28T22:07:47.242Z,99.90
2023-02-28T22:10:15.087Z,99.90
2023-02-28T22:12:44.257Z,99.90
2023-02-28T22:15:13.184Z,99.90
2023-02-28T22:17:40.967Z,99.90
2023-02-28T22:20:09.811Z,99.90
2023-02-28T22:22:37.550Z,99.90
2023-02-28T22:25:06.386Z,99.90
2023-02-28T22:27:35.039Z,99.90
2023-02-28T22:30:04.608Z,99.90
2023-02-28T22:32:32.479Z,99.90
2023-02-28T22:35:00.352Z,99.90
2023-02-28T22:37:28.162Z,99.90
2023-02-28T22:39:55.946Z,99.90
2023-02-28T22:42:23.734Z,99.90
2023-02-28T22:44:51.791Z,99.90
2023-02-28T22:47:22.192Z,99.90
2023-02-28T22:49:49.954Z,99.90
2023-02-28T22:52:17.688Z,99.90
2023-02-28T22:54:45.478Z,99.90
2023-02-28T22:57:13.235Z,99.90
2023-02-28T22:59:41.318Z,99.90
2023-02-28T23:02:09.094Z,99.90
2023-02-28T23:04:38.229Z,99.90
2023-02-28T23:07:06.020Z,99.90
2023-02-28T23:09:33.805Z,99.90
2023-02-28T23:12:01.584Z,99.90
2023-02-28T23:14:29.381Z,99.90
2023-02-28T23:16:57.201Z,99.90
2023-02-28T23:19:27.623Z,99.90
2023-02-28T23:21:57.538Z,99.90
2023-02-28T23:24:27.912Z,99.90
2023-02-28T23:26:58.484Z,99.90
2023-02-28T23:29:27.478Z,99.90
2023-02-28T23:31:56.128Z,99.90
2023-02-28T23:34:26.359Z,99.90
2023-02-28T23:36:56.651Z,99.90
2023-02-28T23:39:26.440Z,99.90
2023-02-28T23:41:54.459Z,99.90
2023-02-28T23:44:22.378Z,99.90
2023-02-28T23:46:52.802Z,99.90
2023-02-28T23:49:22.119Z,99.90
2023-02-28T23:51:50.619Z,99.90
2023-02-28T23:54:20.060Z,99.90
2023-02-28T23:56:48.208Z,99.90
2023-02-28T23:59:15.998Z,99.90
